sensor_id;sensor_type;location;lat;lon;timestamp;temperature;humidity
22194;DHT22;11262;50.308;9.270;2022-07-01T00:01:07;16.20;99.90
22194;DHT22;11262;50.308;9.270;2022-07-01T00:03:32;16.20;99.90
22194;DHT22;11262;50.308;9.270;2022-07-01T00:05:59;16.10;99.90
22194;DHT22;11262;50.308;9.270;2022-07-01T00:08:25;16.10;99.90
22194;DHT22;11262;50.308;9.270;2022-07-01T00:10:50;16.10;99.90
22194;DHT22;11262;50.308;9.270;2022-07-01T00:13:16;16.10;99.90
22194;DHT22;11262;50.308;9.270;2022-07-01T00:15:42;16.10;99.90
22194;DHT22;11262;50.308;9.270;2022-07-01T00:18:07;16.10;99.90
22194;DHT22;11262;50.308;9.270;2022-07-01T00:20:33;16.10;99.90
22194;DHT22;11262;50.308;9.270;2022-07-01T00:22:59;16.10;99.90
22194;DHT22;11262;50.308;9.270;2022-07-01T00:25:24;16.10;99.90
22194;DHT22;11262;50.308;9.270;2022-07-01T00:27:50;16.10;99.90
22194;DHT22;11262;50.308;9.270;2022-07-01T00:30:15;16.00;99.90
22194;DHT22;11262;50.308;9.270;2022-07-01T00:32:41;16.00;99.90
22194;DHT22;11262;50.308;9.270;2022-07-01T00:35:07;16.00;99.90
22194;DHT22;11262;50.308;9.270;2022-07-01T00:37:34;16.00;99.90
22194;DHT22;11262;50.308;9.270;2022-07-01T00:40:00;16.00;99.90
22194;DHT22;11262;50.308;9.270;2022-07-01T00:42:26;16.10;99.90
22194;DHT22;11262;50.308;9.270;2022-07-01T00:44:51;16.00;99.90
22194;DHT22;11262;50.308;9.270;2022-07-01T00:47:17;16.10;99.90
22194;DHT22;11262;50.308;9.270;2022-07-01T00:49:43;16.10;99.90
22194;DHT22;11262;50.308;9.270;2022-07-01T00:52:09;16.10;99.90
22194;DHT22;11262;50.308;9.270;2022-07-01T00:54:36;16.00;99.90
22194;DHT22;11262;50.308;9.270;2022-07-01T00:57:10;15.90;99.90
22194;DHT22;11262;50.308;9.270;2022-07-01T00:59:37;15.90;99.90
22194;DHT22;11262;50.308;9.270;2022-07-01T01:02:05;15.90;99.90
22194;DHT22;11262;50.308;9.270;2022-07-01T01:04:31;15.90;99.90
22194;DHT22;11262;50.308;9.270;2022-07-01T01:06:58;15.90;99.90
22194;DHT22;11262;50.308;9.270;2022-07-01T01:09:25;16.00;99.90
22194;DHT22;11262;50.308;9.270;2022-07-01T01:11:51;16.10;99.90
22194;DHT22;11262;50.308;9.270;2022-07-01T01:14:17;16.10;99.90
22194;DHT22;11262;50.308;9.270;2022-07-01T01:16:42;16.10;99.90
22194;DHT22;11262;50.308;9.270;2022-07-01T01:19:08;16.10;99.90
22194;DHT22;11262;50.308;9.270;2022-07-01T01:21:34;15.90;99.90
22194;DHT22;11262;50.308;9.270;2022-07-01T01:24:00;15.90;99.90
22194;DHT22;11262;50.308;9.270;2022-07-01T01:26:25;15.90;99.90
22194;DHT22;11262;50.308;9.270;2022-07-01T01:28:51;16.00;99.90
22194;DHT22;11262;50.308;9.270;2022-07-01T01:31:18;15.90;99.90
22194;DHT22;11262;50.308;9.270;2022-07-01T01:33:51;15.80;99.90
22194;DHT22;11262;50.308;9.270;2022-07-01T01:36:17;15.80;99.90
22194;DHT22;11262;50.308;9.270;2022-07-01T01:38:43;15.80;99.90
22194;DHT22;11262;50.308;9.270;2022-07-01T01:41:08;15.80;99.90
22194;DHT22;11262;50.308;9.270;2022-07-01T01:43:34;15.70;99.90
22194;DHT22;11262;50.308;9.270;2022-07-01T01:46:00;15.60;99.90
22194;DHT22;11262;50.308;9.270;2022-07-01T01:48:27;15.60;99.90
22194;DHT22;11262;50.308;9.270;2022-07-01T01:50:53;15.50;99.90
22194;DHT22;11262;50.308;9.270;2022-07-01T01:53:19;15.50;99.90
22194;DHT22;11262;50.308;9.270;2022-07-01T01:55:44;15.50;99.90
22194;DHT22;11262;50.308;9.270;2022-07-01T01:58:10;15.50;99.90
22194;DHT22;11262;50.308;9.270;2022-07-01T02:00:35;15.40;99.90
22194;DHT22;11262;50.308;9.270;2022-07-01T02:03:01;15.20;99.90
22194;DHT22;11262;50.308;9.270;2022-07-01T02:05:27;15.20;99.90
22194;DHT22;11262;50.308;9.270;2022-07-01T02:07:52;15.00;99.90
22194;DHT22;11262;50.308;9.270;2022-07-01T02:10:18;15.00;99.90
22194;DHT22;11262;50.308;9.270;2022-07-01T02:12:43;14.90;99.90
22194;DHT22;11262;50.308;9.270;2022-07-01T02:15:09;14.90;99.90
22194;DHT22;11262;50.308;9.270;2022-07-01T02:17:35;14.90;99.90
22194;DHT22;11262;50.308;9.270;2022-07-01T02:20:00;15.00;99.90
22194;DHT22;11262;50.308;9.270;2022-07-01T02:22:26;14.90;99.90
22194;DHT22;11262;50.308;9.270;2022-07-01T02:24:52;14.90;99.90
22194;DHT22;11262;50.308;9.270;2022-07-01T02:27:17;14.80;99.90
22194;DHT22;11262;50.308;9.270;2022-07-01T02:29:44;14.80;99.90
22194;DHT22;11262;50.308;9.270;2022-07-01T02:32:10;14.80;99.90
22194;DHT22;11262;50.308;9.270;2022-07-01T02:34:35;14.80;99.90
22194;DHT22;11262;50.308;9.270;2022-07-01T02:37:01;14.70;99.90
22194;DHT22;11262;50.308;9.270;2022-07-01T02:39:27;14.60;99.90
22194;DHT22;11262;50.308;9.270;2022-07-01T02:41:52;14.60;99.90
22194;DHT22;11262;50.308;9.270;2022-07-01T02:44:36;14.50;99.90
22194;DHT22;11262;50.308;9.270;2022-07-01T02:47:02;14.50;99.90
22194;DHT22;11262;50.308;9.270;2022-07-01T02:49:28;14.50;99.90
22194;DHT22;11262;50.308;9.270;2022-07-01T02:51:54;14.40;99.90
22194;DHT22;11262;50.308;9.270;2022-07-01T02:54:19;14.40;99.90
22194;DHT22;11262;50.308;9.270;2022-07-01T02:56:45;14.40;99.90
22194;DHT22;11262;50.308;9.270;2022-07-01T02:59:10;14.40;99.90
22194;DHT22;11262;50.308;9.270;2022-07-01T03:01:36;14.40;99.90
22194;DHT22;11262;50.308;9.270;2022-07-01T03:04:02;14.30;99.90
22194;DHT22;11262;50.308;9.270;2022-07-01T03:06:27;14.30;99.90
22194;DHT22;11262;50.308;9.270;2022-07-01T03:08:53;14.20;99.90
22194;DHT22;11262;50.308;9.270;2022-07-01T03:11:19;14.30;99.90
22194;DHT22;11262;50.308;9.270;2022-07-01T03:13:44;14.20;99.90
22194;DHT22;11262;50.308;9.270;2022-07-01T03:16:10;14.20;99.90
22194;DHT22;11262;50.308;9.270;2022-07-01T03:18:36;14.20;99.90
22194;DHT22;11262;50.308;9.270;2022-07-01T03:21:01;14.10;99.90
22194;DHT22;11262;50.308;9.270;2022-07-01T03:23:27;14.20;99.90
22194;DHT22;11262;50.308;9.270;2022-07-01T03:25:52;14.20;99.90
22194;DHT22;11262;50.308;9.270;2022-07-01T03:28:18;14.20;99.90
22194;DHT22;11262;50.308;9.270;2022-07-01T03:30:43;14.30;99.90
22194;DHT22;11262;50.308;9.270;2022-07-01T03:33:09;14.30;99.90
22194;DHT22;11262;50.308;9.270;2022-07-01T03:35:35;14.30;99.90
22194;DHT22;11262;50.308;9.270;2022-07-01T03:38:00;14.30;99.90
22194;DHT22;11262;50.308;9.270;2022-07-01T03:40:26;14.30;99.90
22194;DHT22;11262;50.308;9.270;2022-07-01T03:42:52;14.30;99.90
22194;DHT22;11262;50.308;9.270;2022-07-01T03:45:17;14.40;99.90
22194;DHT22;11262;50.308;9.270;2022-07-01T03:47:49;14.40;99.90
22194;DHT22;11262;50.308;9.270;2022-07-01T03:50:16;14.50;99.90
22194;DHT22;11262;50.308;9.270;2022-07-01T03:52:42;14.40;99.90
22194;DHT22;11262;50.308;9.270;2022-07-01T03:55:09;14.40;99.90
22194;DHT22;11262;50.308;9.270;2022-07-01T03:57:35;14.30;99.90
22194;DHT22;11262;50.308;9.270;2022-07-01T04:00:01;14.20;99.90
22194;DHT22;11262;50.308;9.270;2022-07-01T04:02:26;14.20;99.90
22194;DHT22;11262;50.308;9.270;2022-07-01T04:04:52;14.30;99.90
22194;DHT22;11262;50.308;9.270;2022-07-01T04:07:18;14.30;99.90
22194;DHT22;11262;50.308;9.270;2022-07-01T04:09:43;14.30;99.90
22194;DHT22;11262;50.308;9.270;2022-07-01T04:12:09;14.30;99.90
22194;DHT22;11262;50.308;9.270;2022-07-01T04:14:38;14.40;99.90
22194;DHT22;11262;50.308;9.270;2022-07-01T04:17:03;14.40;99.90
22194;DHT22;11262;50.308;9.270;2022-07-01T04:19:30;14.50;99.90
22194;DHT22;11262;50.308;9.270;2022-07-01T04:21:55;14.50;99.90
22194;DHT22;11262;50.308;9.270;2022-07-01T04:24:40;14.50;99.90
22194;DHT22;11262;50.308;9.270;2022-07-01T04:27:05;14.50;99.90
22194;DHT22;11262;50.308;9.270;2022-07-01T04:29:31;14.60;99.90
22194;DHT22;11262;50.308;9.270;2022-07-01T04:31:57;14.60;99.90
22194;DHT22;11262;50.308;9.270;2022-07-01T04:34:24;14.60;99.90
22194;DHT22;11262;50.308;9.270;2022-07-01T04:36:50;14.60;99.90
22194;DHT22;11262;50.308;9.270;2022-07-01T04:39:16;14.60;99.90
22194;DHT22;11262;50.308;9.270;2022-07-01T04:41:42;14.60;99.90
22194;DHT22;11262;50.308;9.270;2022-07-01T04:44:31;14.60;99.90
22194;DHT22;11262;50.308;9.270;2022-07-01T04:46:58;14.60;99.90
22194;DHT22;11262;50.308;9.270;2022-07-01T04:49:24;14.60;99.90
22194;DHT22;11262;50.308;9.270;2022-07-01T04:51:50;14.60;99.90
22194;DHT22;11262;50.308;9.270;2022-07-01T04:54:15;14.70;99.90
22194;DHT22;11262;50.308;9.270;2022-07-01T04:56:41;14.60;99.90
22194;DHT22;11262;50.308;9.270;2022-07-01T04:59:07;14.70;99.90
22194;DHT22;11262;50.308;9.270;2022-07-01T05:01:32;14.70;99.90
22194;DHT22;11262;50.308;9.270;2022-07-01T05:03:59;14.70;99.90
22194;DHT22;11262;50.308;9.270;2022-07-01T05:06:25;14.70;99.90
22194;DHT22;11262;50.308;9.270;2022-07-01T05:08:50;14.50;99.90
22194;DHT22;11262;50.308;9.270;2022-07-01T05:11:16;14.60;99.90
22194;DHT22;11262;50.308;9.270;2022-07-01T05:13:42;14.60;99.90
22194;DHT22;11262;50.308;9.270;2022-07-01T05:16:07;14.60;99.90
22194;DHT22;11262;50.308;9.270;2022-07-01T05:18:36;14.60;99.90
22194;DHT22;11262;50.308;9.270;2022-07-01T05:21:21;14.60;99.90
22194;DHT22;11262;50.308;9.270;2022-07-01T05:24:06;14.50;99.90
22194;DHT22;11262;50.308;9.270;2022-07-01T05:26:31;14.50;99.90
22194;DHT22;11262;50.308;9.270;2022-07-01T05:28:57;14.50;99.90
22194;DHT22;11262;50.308;9.270;2022-07-01T05:31:23;14.40;99.90
22194;DHT22;11262;50.308;9.270;2022-07-01T05:33:48;14.30;99.90
22194;DHT22;11262;50.308;9.270;2022-07-01T05:36:15;14.40;99.90
22194;DHT22;11262;50.308;9.270;2022-07-01T05:38:40;14.30;99.90
22194;DHT22;11262;50.308;9.270;2022-07-01T05:41:06;14.50;99.90
22194;DHT22;11262;50.308;9.270;2022-07-01T05:43:33;14.40;99.90
22194;DHT22;11262;50.308;9.270;2022-07-01T05:45:59;14.50;99.90
22194;DHT22;11262;50.308;9.270;2022-07-01T05:48:25;14.50;99.90
22194;DHT22;11262;50.308;9.270;2022-07-01T05:50:51;14.60;99.90
22194;DHT22;11262;50.308;9.270;2022-07-01T05:53:17;14.50;99.90
22194;DHT22;11262;50.308;9.270;2022-07-01T05:55:43;14.50;99.90
22194;DHT22;11262;50.308;9.270;2022-07-01T05:58:12;14.50;99.90
22194;DHT22;11262;50.308;9.270;2022-07-01T06:00:39;14.50;99.90
22194;DHT22;11262;50.308;9.270;2022-07-01T06:03:10;14.50;99.90
22194;DHT22;11262;50.308;9.270;2022-07-01T06:05:36;14.40;99.90
22194;DHT22;11262;50.308;9.270;2022-07-01T06:08:03;14.30;99.90
22194;DHT22;11262;50.308;9.270;2022-07-01T06:10:29;14.40;99.90
22194;DHT22;11262;50.308;9.270;2022-07-01T06:12:54;14.50;99.90
22194;DHT22;11262;50.308;9.270;2022-07-01T06:15:20;14.40;99.90
22194;DHT22;11262;50.308;9.270;2022-07-01T06:17:46;14.40;99.90
22194;DHT22;11262;50.308;9.270;2022-07-01T06:20:11;14.40;99.90
22194;DHT22;11262;50.308;9.270;2022-07-01T06:22:37;14.40;99.90
22194;DHT22;11262;50.308;9.270;2022-07-01T06:25:03;14.40;99.90
22194;DHT22;11262;50.308;9.270;2022-07-01T06:27:29;14.50;99.90
22194;DHT22;11262;50.308;9.270;2022-07-01T06:29:54;14.60;99.90
22194;DHT22;11262;50.308;9.270;2022-07-01T06:32:20;14.70;99.90
22194;DHT22;11262;50.308;9.270;2022-07-01T06:34:46;14.70;99.90
22194;DHT22;11262;50.308;9.270;2022-07-01T06:37:12;14.80;99.90
22194;DHT22;11262;50.308;9.270;2022-07-01T06:39:38;14.80;99.90
22194;DHT22;11262;50.308;9.270;2022-07-01T06:42:04;14.90;99.90
22194;DHT22;11262;50.308;9.270;2022-07-01T06:44:29;14.90;99.90
22194;DHT22;11262;50.308;9.270;2022-07-01T06:46:55;15.00;99.90
22194;DHT22;11262;50.308;9.270;2022-07-01T06:49:20;15.00;99.90
22194;DHT22;11262;50.308;9.270;2022-07-01T06:51:46;15.00;99.90
22194;DHT22;11262;50.308;9.270;2022-07-01T06:54:12;15.00;99.90
22194;DHT22;11262;50.308;9.270;2022-07-01T06:56:38;15.00;99.90
22194;DHT22;11262;50.308;9.270;2022-07-01T06:59:03;15.00;99.90
22194;DHT22;11262;50.308;9.270;2022-07-01T07:01:29;15.00;99.90
22194;DHT22;11262;50.308;9.270;2022-07-01T07:03:55;15.10;99.90
22194;DHT22;11262;50.308;9.270;2022-07-01T07:06:21;15.00;99.90
22194;DHT22;11262;50.308;9.270;2022-07-01T07:08:47;15.00;99.90
22194;DHT22;11262;50.308;9.270;2022-07-01T07:11:13;15.10;99.90
22194;DHT22;11262;50.308;9.270;2022-07-01T07:13:41;15.00;99.90
22194;DHT22;11262;50.308;9.270;2022-07-01T07:16:06;15.00;99.90
22194;DHT22;11262;50.308;9.270;2022-07-01T07:18:32;15.10;99.90
22194;DHT22;11262;50.308;9.270;2022-07-01T07:20:58;15.10;99.90
22194;DHT22;11262;50.308;9.270;2022-07-01T07:23:24;15.10;99.90
22194;DHT22;11262;50.308;9.270;2022-07-01T07:25:49;15.10;99.90
22194;DHT22;11262;50.308;9.270;2022-07-01T07:28:15;15.20;99.90
22194;DHT22;11262;50.308;9.270;2022-07-01T07:30:40;15.20;99.90
22194;DHT22;11262;50.308;9.270;2022-07-01T07:33:06;15.10;99.90
22194;DHT22;11262;50.308;9.270;2022-07-01T07:35:32;15.10;99.90
22194;DHT22;11262;50.308;9.270;2022-07-01T07:37:57;14.90;99.90
22194;DHT22;11262;50.308;9.270;2022-07-01T07:40:23;14.90;99.90
22194;DHT22;11262;50.308;9.270;2022-07-01T07:42:50;14.90;99.90
22194;DHT22;11262;50.308;9.270;2022-07-01T07:45:15;14.90;99.90
22194;DHT22;11262;50.308;9.270;2022-07-01T07:47:47;14.90;99.90
22194;DHT22;11262;50.308;9.270;2022-07-01T07:50:21;14.90;99.90
22194;DHT22;11262;50.308;9.270;2022-07-01T07:52:47;14.90;99.90
22194;DHT22;11262;50.308;9.270;2022-07-01T07:55:13;14.90;99.90
22194;DHT22;11262;50.308;9.270;2022-07-01T07:57:39;14.90;99.90
22194;DHT22;11262;50.308;9.270;2022-07-01T08:00:07;14.80;99.90
22194;DHT22;11262;50.308;9.270;2022-07-01T08:02:34;14.80;99.90
22194;DHT22;11262;50.308;9.270;2022-07-01T08:04:59;14.80;99.90
22194;DHT22;11262;50.308;9.270;2022-07-01T08:07:25;14.80;99.90
22194;DHT22;11262;50.308;9.270;2022-07-01T08:09:50;14.70;99.90
22194;DHT22;11262;50.308;9.270;2022-07-01T08:12:16;14.70;99.90
22194;DHT22;11262;50.308;9.270;2022-07-01T08:14:43;14.70;99.90
22194;DHT22;11262;50.308;9.270;2022-07-01T08:17:08;14.70;99.90
22194;DHT22;11262;50.308;9.270;2022-07-01T08:19:34;14.60;99.90
22194;DHT22;11262;50.308;9.270;2022-07-01T08:22:00;14.60;99.90
22194;DHT22;11262;50.308;9.270;2022-07-01T08:24:25;14.60;99.90
22194;DHT22;11262;50.308;9.270;2022-07-01T08:26:51;14.50;99.90
22194;DHT22;11262;50.308;9.270;2022-07-01T08:29:16;14.50;99.90
22194;DHT22;11262;50.308;9.270;2022-07-01T08:31:42;14.50;99.90
22194;DHT22;11262;50.308;9.270;2022-07-01T08:34:08;14.50;99.90
22194;DHT22;11262;50.308;9.270;2022-07-01T08:36:35;14.50;99.90
22194;DHT22;11262;50.308;9.270;2022-07-01T08:39:00;14.60;99.90
22194;DHT22;11262;50.308;9.270;2022-07-01T08:41:26;14.60;99.90
22194;DHT22;11262;50.308;9.270;2022-07-01T08:43:52;14.60;99.90
22194;DHT22;11262;50.308;9.270;2022-07-01T08:46:17;14.70;99.90
22194;DHT22;11262;50.308;9.270;2022-07-01T08:48:44;14.70;99.90
22194;DHT22;11262;50.308;9.270;2022-07-01T08:51:10;14.70;99.90
22194;DHT22;11262;50.308;9.270;2022-07-01T08:53:36;14.70;99.90
22194;DHT22;11262;50.308;9.270;2022-07-01T08:56:03;14.80;99.90
22194;DHT22;11262;50.308;9.270;2022-07-01T08:58:50;14.80;99.90
22194;DHT22;11262;50.308;9.270;2022-07-01T09:01:17;14.90;99.90
22194;DHT22;11262;50.308;9.270;2022-07-01T09:03:44;14.90;99.90
22194;DHT22;11262;50.308;9.270;2022-07-01T09:06:15;14.90;99.90
22194;DHT22;11262;50.308;9.270;2022-07-01T09:08:45;14.90;99.90
22194;DHT22;11262;50.308;9.270;2022-07-01T09:11:16;14.90;99.90
22194;DHT22;11262;50.308;9.270;2022-07-01T09:13:43;14.90;99.90
22194;DHT22;11262;50.308;9.270;2022-07-01T09:16:16;15.00;99.90
22194;DHT22;11262;50.308;9.270;2022-07-01T09:19:01;15.10;99.90
22194;DHT22;11262;50.308;9.270;2022-07-01T09:21:29;15.10;99.90
22194;DHT22;11262;50.308;9.270;2022-07-01T09:23:56;15.10;99.90
22194;DHT22;11262;50.308;9.270;2022-07-01T09:26:22;15.20;99.90
22194;DHT22;11262;50.308;9.270;2022-07-01T09:28:55;15.10;99.90
22194;DHT22;11262;50.308;9.270;2022-07-01T09:31:33;15.10;99.90
22194;DHT22;11262;50.308;9.270;2022-07-01T09:34:06;15.10;99.90
22194;DHT22;11262;50.308;9.270;2022-07-01T09:36:33;15.10;99.90
22194;DHT22;11262;50.308;9.270;2022-07-01T09:39:03;15.20;99.90
22194;DHT22;11262;50.308;9.270;2022-07-01T09:41:35;15.50;99.90
22194;DHT22;11262;50.308;9.270;2022-07-01T09:44:09;15.50;99.90
22194;DHT22;11262;50.308;9.270;2022-07-01T09:46:35;15.60;99.90
22194;DHT22;11262;50.308;9.270;2022-07-01T09:49:01;15.60;99.90
22194;DHT22;11262;50.308;9.270;2022-07-01T09:51:27;15.90;99.90
22194;DHT22;11262;50.308;9.270;2022-07-01T09:53:54;15.80;99.90
22194;DHT22;11262;50.308;9.270;2022-07-01T09:56:25;15.90;99.90
22194;DHT22;11262;50.308;9.270;2022-07-01T09:58:51;15.80;99.90
22194;DHT22;11262;50.308;9.270;2022-07-01T10:01:17;15.90;99.90
22194;DHT22;11262;50.308;9.270;2022-07-01T10:03:43;15.80;99.90
22194;DHT22;11262;50.308;9.270;2022-07-01T10:09:41;15.70;99.90
22194;DHT22;11262;50.308;9.270;2022-07-01T10:14:45;15.60;99.90
22194;DHT22;11262;50.308;9.270;2022-07-01T10:17:29;15.50;99.90
22194;DHT22;11262;50.308;9.270;2022-07-01T10:19:56;15.30;99.90
22194;DHT22;11262;50.308;9.270;2022-07-01T10:22:28;15.20;99.90
22194;DHT22;11262;50.308;9.270;2022-07-01T10:24:55;15.10;99.90
22194;DHT22;11262;50.308;9.270;2022-07-01T10:27:22;15.10;99.90
22194;DHT22;11262;50.308;9.270;2022-07-01T10:29:49;15.20;99.90
22194;DHT22;11262;50.308;9.270;2022-07-01T10:34:46;15.50;99.90
22194;DHT22;11262;50.308;9.270;2022-07-01T10:37:12;15.50;99.90
22194;DHT22;11262;50.308;9.270;2022-07-01T10:39:54;15.40;99.90
22194;DHT22;11262;50.308;9.270;2022-07-01T10:42:20;15.50;99.90
22194;DHT22;11262;50.308;9.270;2022-07-01T10:47:30;15.40;99.90
22194;DHT22;11262;50.308;9.270;2022-07-01T10:52:35;15.40;99.90
22194;DHT22;11262;50.308;9.270;2022-07-01T10:55:04;15.20;99.90
22194;DHT22;11262;50.308;9.270;2022-07-01T10:57:33;15.10;99.90
22194;DHT22;11262;50.308;9.270;2022-07-01T11:02:26;15.20;99.90
22194;DHT22;11262;50.308;9.270;2022-07-01T11:04:56;15.30;99.90
22194;DHT22;11262;50.308;9.270;2022-07-01T11:07:30;15.50;99.90
22194;DHT22;11262;50.308;9.270;2022-07-01T11:09:57;15.50;99.90
22194;DHT22;11262;50.308;9.270;2022-07-01T11:12:23;15.50;99.90
22194;DHT22;11262;50.308;9.270;2022-07-01T11:14:50;15.60;99.90
22194;DHT22;11262;50.308;9.270;2022-07-01T11:17:18;15.60;99.90
22194;DHT22;11262;50.308;9.270;2022-07-01T11:19:49;15.60;99.90
22194;DHT22;11262;50.308;9.270;2022-07-01T11:22:23;15.60;99.90
22194;DHT22;11262;50.308;9.270;2022-07-01T11:24:59;15.60;99.90
22194;DHT22;11262;50.308;9.270;2022-07-01T11:27:25;15.70;99.90
22194;DHT22;11262;50.308;9.270;2022-07-01T11:29:56;15.70;99.90
22194;DHT22;11262;50.308;9.270;2022-07-01T11:32:26;16.00;99.90
22194;DHT22;11262;50.308;9.270;2022-07-01T11:34:54;15.90;99.90
22194;DHT22;11262;50.308;9.270;2022-07-01T11:37:20;16.20;99.90
22194;DHT22;11262;50.308;9.270;2022-07-01T11:40:12;16.20;99.90
22194;DHT22;11262;50.308;9.270;2022-07-01T11:42:39;16.30;99.90
22194;DHT22;11262;50.308;9.270;2022-07-01T11:45:06;16.20;99.90
22194;DHT22;11262;50.308;9.270;2022-07-01T11:47:32;16.40;99.90
22194;DHT22;11262;50.308;9.270;2022-07-01T11:49:59;16.30;99.90
22194;DHT22;11262;50.308;9.270;2022-07-01T11:52:26;16.30;99.90
22194;DHT22;11262;50.308;9.270;2022-07-01T11:54:54;16.20;99.90
22194;DHT22;11262;50.308;9.270;2022-07-01T11:57:24;16.30;99.90
22194;DHT22;11262;50.308;9.270;2022-07-01T11:59:55;16.30;99.90
22194;DHT22;11262;50.308;9.270;2022-07-01T12:02:22;16.30;99.90
22194;DHT22;11262;50.308;9.270;2022-07-01T12:04:49;16.50;99.90
22194;DHT22;11262;50.308;9.270;2022-07-01T12:07:16;16.40;99.90
22194;DHT22;11262;50.308;9.270;2022-07-01T12:09:42;16.50;99.90
22194;DHT22;11262;50.308;9.270;2022-07-01T12:12:19;16.80;99.90
22194;DHT22;11262;50.308;9.270;2022-07-01T12:14:53;16.70;99.90
22194;DHT22;11262;50.308;9.270;2022-07-01T12:17:20;16.90;99.90
22194;DHT22;11262;50.308;9.270;2022-07-01T12:19:47;16.80;99.90
22194;DHT22;11262;50.308;9.270;2022-07-01T12:22:15;17.30;99.90
22194;DHT22;11262;50.308;9.270;2022-07-01T12:24:41;17.50;99.90
22194;DHT22;11262;50.308;9.270;2022-07-01T12:27:08;17.90;99.90
22194;DHT22;11262;50.308;9.270;2022-07-01T12:32:14;18.50;99.90
22194;DHT22;11262;50.308;9.270;2022-07-01T12:34:46;19.20;99.90
22194;DHT22;11262;50.308;9.270;2022-07-01T12:37:15;19.30;99.90
22194;DHT22;11262;50.308;9.270;2022-07-01T12:39:46;19.50;99.90
22194;DHT22;11262;50.308;9.270;2022-07-01T12:42:37;19.80;99.90
22194;DHT22;11262;50.308;9.270;2022-07-01T12:45:10;19.70;99.90
22194;DHT22;11262;50.308;9.270;2022-07-01T12:47:44;19.60;99.90
22194;DHT22;11262;50.308;9.270;2022-07-01T12:50:11;20.10;99.90
22194;DHT22;11262;50.308;9.270;2022-07-01T12:52:38;20.40;99.90
22194;DHT22;11262;50.308;9.270;2022-07-01T12:55:18;20.70;99.90
22194;DHT22;11262;50.308;9.270;2022-07-01T12:57:49;20.80;99.90
22194;DHT22;11262;50.308;9.270;2022-07-01T13:00:20;20.40;99.90
22194;DHT22;11262;50.308;9.270;2022-07-01T13:02:47;20.40;99.90
22194;DHT22;11262;50.308;9.270;2022-07-01T13:05:15;20.20;99.90
22194;DHT22;11262;50.308;9.270;2022-07-01T13:07:41;20.40;99.90
22194;DHT22;11262;50.308;9.270;2022-07-01T13:10:07;20.30;99.90
22194;DHT22;11262;50.308;9.270;2022-07-01T13:12:32;20.40;99.90
22194;DHT22;11262;50.308;9.270;2022-07-01T13:14:58;19.90;99.90
22194;DHT22;11262;50.308;9.270;2022-07-01T13:17:24;19.60;99.90
22194;DHT22;11262;50.308;9.270;2022-07-01T13:19:50;19.60;99.90
22194;DHT22;11262;50.308;9.270;2022-07-01T13:22:16;19.80;99.90
22194;DHT22;11262;50.308;9.270;2022-07-01T13:24:42;20.30;99.90
22194;DHT22;11262;50.308;9.270;2022-07-01T13:27:07;20.40;99.90
22194;DHT22;11262;50.308;9.270;2022-07-01T13:29:33;20.00;99.90
22194;DHT22;11262;50.308;9.270;2022-07-01T13:31:59;19.60;99.90
22194;DHT22;11262;50.308;9.270;2022-07-01T13:34:24;19.50;99.90
22194;DHT22;11262;50.308;9.270;2022-07-01T13:36:50;19.40;99.90
22194;DHT22;11262;50.308;9.270;2022-07-01T13:39:16;19.30;99.90
22194;DHT22;11262;50.308;9.270;2022-07-01T13:41:41;19.30;99.90
22194;DHT22;11262;50.308;9.270;2022-07-01T13:44:07;19.20;99.90
22194;DHT22;11262;50.308;9.270;2022-07-01T13:46:33;19.20;99.90
22194;DHT22;11262;50.308;9.270;2022-07-01T13:49:02;19.20;99.90
22194;DHT22;11262;50.308;9.270;2022-07-01T13:51:28;19.10;99.90
22194;DHT22;11262;50.308;9.270;2022-07-01T13:53:53;19.10;99.90
22194;DHT22;11262;50.308;9.270;2022-07-01T13:56:19;19.00;99.90
22194;DHT22;11262;50.308;9.270;2022-07-01T13:58:47;18.90;99.90
22194;DHT22;11262;50.308;9.270;2022-07-01T14:01:16;19.10;99.90
22194;DHT22;11262;50.308;9.270;2022-07-01T14:03:42;19.20;99.90
22194;DHT22;11262;50.308;9.270;2022-07-01T14:06:08;19.40;99.90
22194;DHT22;11262;50.308;9.270;2022-07-01T14:08:33;19.60;99.90
22194;DHT22;11262;50.308;9.270;2022-07-01T14:10:59;19.90;99.90
22194;DHT22;11262;50.308;9.270;2022-07-01T14:13:25;19.50;99.90
22194;DHT22;11262;50.308;9.270;2022-07-01T14:15:51;19.90;99.90
22194;DHT22;11262;50.308;9.270;2022-07-01T14:18:16;20.50;99.90
22194;DHT22;11262;50.308;9.270;2022-07-01T14:20:42;20.90;99.90
22194;DHT22;11262;50.308;9.270;2022-07-01T14:23:08;20.90;99.90
22194;DHT22;11262;50.308;9.270;2022-07-01T14:25:34;20.80;99.90
22194;DHT22;11262;50.308;9.270;2022-07-01T14:27:59;20.40;99.90
22194;DHT22;11262;50.308;9.270;2022-07-01T14:30:25;20.20;99.90
22194;DHT22;11262;50.308;9.270;2022-07-01T14:32:51;20.20;99.90
22194;DHT22;11262;50.308;9.270;2022-07-01T14:35:16;20.40;99.90
22194;DHT22;11262;50.308;9.270;2022-07-01T14:37:42;20.70;99.90
22194;DHT22;11262;50.308;9.270;2022-07-01T14:40:10;20.70;99.90
22194;DHT22;11262;50.308;9.270;2022-07-01T14:42:37;21.00;99.90
22194;DHT22;11262;50.308;9.270;2022-07-01T14:45:04;20.70;99.90
22194;DHT22;11262;50.308;9.270;2022-07-01T14:47:29;20.80;99.90
22194;DHT22;11262;50.308;9.270;2022-07-01T14:49:55;20.90;99.90
22194;DHT22;11262;50.308;9.270;2022-07-01T14:52:22;21.50;99.90
22194;DHT22;11262;50.308;9.270;2022-07-01T14:54:48;21.60;99.90
22194;DHT22;11262;50.308;9.270;2022-07-01T14:57:15;21.10;99.90
22194;DHT22;11262;50.308;9.270;2022-07-01T14:59:40;20.40;99.90
22194;DHT22;11262;50.308;9.270;2022-07-01T15:02:06;20.70;99.90
22194;DHT22;11262;50.308;9.270;2022-07-01T15:04:33;20.70;99.90
22194;DHT22;11262;50.308;9.270;2022-07-01T15:06:59;20.70;99.90
22194;DHT22;11262;50.308;9.270;2022-07-01T15:09:25;20.50;99.90
22194;DHT22;11262;50.308;9.270;2022-07-01T15:11:52;20.30;99.90
22194;DHT22;11262;50.308;9.270;2022-07-01T15:14:18;20.00;99.90
22194;DHT22;11262;50.308;9.270;2022-07-01T15:16:44;19.80;99.90
22194;DHT22;11262;50.308;9.270;2022-07-01T15:19:10;19.80;99.90
22194;DHT22;11262;50.308;9.270;2022-07-01T15:21:36;19.70;99.90
22194;DHT22;11262;50.308;9.270;2022-07-01T15:24:03;19.80;99.90
22194;DHT22;11262;50.308;9.270;2022-07-01T15:26:29;19.70;99.90
22194;DHT22;11262;50.308;9.270;2022-07-01T15:28:54;19.60;99.90
22194;DHT22;11262;50.308;9.270;2022-07-01T15:31:20;19.50;99.90
22194;DHT22;11262;50.308;9.270;2022-07-01T15:33:46;19.40;99.90
22194;DHT22;11262;50.308;9.270;2022-07-01T15:36:13;19.50;99.90
22194;DHT22;11262;50.308;9.270;2022-07-01T15:38:39;19.30;99.90
22194;DHT22;11262;50.308;9.270;2022-07-01T15:41:05;19.30;99.90
22194;DHT22;11262;50.308;9.270;2022-07-01T15:43:32;19.40;99.90
22194;DHT22;11262;50.308;9.270;2022-07-01T15:45:58;19.60;99.90
22194;DHT22;11262;50.308;9.270;2022-07-01T15:48:24;19.60;99.90